European Seaway — MPDG3 — position and weather

sailwx.info

Track history (hours):
 
Tides and Currents Weather Stations Pressure Air Temp Water Temp Dewpoint Dewpoint Depression Visibility Wind Speed Wind Dir Waves Ship Positions

European Seaway

Operator: P & O Ferries

Last reported at 2015-Aug-31 17:33 UTC. Time now 2015-Aug-31 17:52 UTC.
Position N 51°07' E 001°20'.

Length 175 m; draft 6 m.

Type: Passenger vessel. MMSI: 232001040.

Date/timePositionNaut miles runAvg speedWind from/ knotsBaromVisibWave heightAir tempDewpointWater temp
2015-Aug-31 17:33N 51°07' E 001°20'0 0.0
2015-Aug-31 16:32N 51°07' E 001°20'9 9.0
2015-Aug-31 15:34N 51°04' E 001°33'1312.8
2015-Aug-31 14:34N 50°58' E 001°51'2 2.0
2015-Aug-31 13:33N 50°58' E 001°48'2 2.1
2015-Aug-31 12:33N 50°58' E 001°44'1414.0
2015-Aug-31 11:33N 51°05' E 001°25'4 4.0
2015-Aug-31 10:33N 51°07' E 001°20'1313.0
2015-Aug-31 09:33N 51°02' E 001°39'9 8.6
2015-Aug-31 08:34N 50°58' E 001°51'4 3.9
2015-Aug-31 07:33N 50°58' E 001°45'1413.8
2015-Aug-31 06:33N 51°05' E 001°25'4 4.0
2015-Aug-31 05:33N 51°07' E 001°20'1515.4
2015-Aug-31 04:33N 50°60' E 001°41'6 6.1
2015-Aug-31 03:33N 50°58' E 001°51'2 2.4
2015-Aug-31 02:32N 50°58' E 001°47'1111.1
2015-Aug-31 01:33N 51°02' E 001°31'9 1.4
2015-Aug-30 19:23N 51°07' E 001°20'1 0.2
2015-Aug-30 16:32N 51°07' E 001°20'1313.3
2015-Aug-30 15:33N 51°01' E 001°38'9 8.5
2015-Aug-30 14:33N 50°58' E 001°51'8 7.6
2015-Aug-30 13:34N 50°59' E 001°39'14 7.0
2015-Aug-30 11:32N 51°07' E 001°20'1616.6
2015-Aug-30 10:33N 50°59' E 001°42'6 5.4
2015-Aug-30 09:32N 50°58' E 001°51'1 0.5
2015-Aug-30 08:31N 50°58' E 001°52'0 0.0
2015-Aug-30 07:25N 50°58' E 001°52'0 0.0
2015-Aug-30 06:31N 50°58' E 001°52'0 0.0
2015-Aug-30 05:34N 50°58' E 001°52'0 0.0
2015-Aug-30 04:33N 50°58' E 001°52'0 0.0
2015-Aug-30 03:33N 50°58' E 001°52'0 0.0
2015-Aug-30 02:34N 50°58' E 001°52'0 0.0
2015-Aug-30 01:33N 50°58' E 001°52'0 0.0
2015-Aug-30 00:33N 50°58' E 001°52'0 0.0
2015-Aug-29 23:33N 50°58' E 001°52'0 0.0
2015-Aug-29 22:34N 50°58' E 001°52'0 0.0
2015-Aug-29 21:33N 50°58' E 001°52'6 6.0
2015-Aug-29 20:33N 50°58' E 001°42'1312.8
2015-Aug-29 19:34N 51°05' E 001°25'4 3.8
2015-Aug-29 18:33N 51°07' E 001°20'0 0.0
2015-Aug-29 17:33N 51°07' E 001°20'0 0.1
2015-Aug-29 16:33N 51°07' E 001°20'1615.7
2015-Aug-29 15:33N 50°60' E 001°42'6 6.1
2015-Aug-29 14:33N 50°58' E 001°51'9 9.5
2015-Aug-29 13:34N 51°00' E 001°36'12 9.4
2015-Aug-29 12:14N 51°07' E 001°20'2 2.5
2015-Aug-29 11:33N 51°07' E 001°23'1616.2
2015-Aug-29 10:34N 50°58' E 001°44'4 4.1
2015-Aug-29 09:34N 50°58' E 001°51'9 8.7
2015-Aug-29 08:33N 50°59' E 001°37'1312.8
2015-Aug-29 07:30N 51°07' E 001°20'0 0.0
2015-Aug-29 06:25N 51°07' E 001°20'7 8.0
2015-Aug-29 05:34N 51°05' E 001°30'1514.9
2015-Aug-29 04:33N 50°58' E 001°52'0 0.1
2015-Aug-29 03:33N 50°58' E 001°52'0 0.0
2015-Aug-29 02:33N 50°58' E 001°52'0 0.0
2015-Aug-29 01:33N 50°58' E 001°52'0 0.0
2015-Aug-29 00:33N 50°58' E 001°52'0 0.0
2015-Aug-28 23:33N 50°58' E 001°52'0 0.0
2015-Aug-28 22:33N 50°58' E 001°52'0 0.3
2015-Aug-28 21:33N 50°58' E 001°51'4 3.8
2015-Aug-28 20:34N 50°58' E 001°45'1817.5
2015-Aug-28 19:33N 51°07' E 001°21'1 0.6
2015-Aug-28 18:17N 51°07' E 001°20'0 0.0
2015-Aug-28 17:25N 51°07' E 001°20'7 8.0
2015-Aug-28 16:33N 51°05' E 001°30'1514.6
2015-Aug-28 15:33N 50°58' E 001°51'0 0.0
2015-Aug-28 14:33N 50°58' E 001°51'1413.8
2015-Aug-28 13:33N 51°03' E 001°30'8 7.8
2015-Aug-28 12:32N 51°07' E 001°20'5 5.4
2015-Aug-28 11:34N 51°06' E 001°28'1615.5
2015-Aug-28 10:34N 50°58' E 001°50'1 0.7
2015-Aug-28 09:33N 50°58' E 001°51'8 7.8
2015-Aug-28 08:34N 50°59' E 001°39'14 4.7
2015-Aug-28 05:33N 51°07' E 001°20'1111.5
2015-Aug-28 04:33N 51°02' E 001°36'10 9.9
2015-Aug-28 03:33N 50°58' E 001°51'10 9.8
2015-Aug-28 02:33N 50°60' E 001°36'12 8.9
2015-Aug-28 01:10N 51°07' E 001°20'1 1.2
2015-Aug-28 00:33N 51°07' E 001°21'1212.3
2015-Aug-27 23:33N 51°01' E 001°38'8 8.1
2015-Aug-27 22:31N 50°58' E 001°51'2 1.6
2015-Aug-27 21:33N 50°58' E 001°48'7 6.7
2015-Aug-27 20:33N 50°59' E 001°38'1212.2
2015-Aug-27 19:33N 51°06' E 001°22'2 0.7
2015-Aug-27 17:29N 51°07' E 001°20'1213.2
2015-Aug-27 16:34N 51°02' E 001°37'9 9.0
2015-Aug-27 15:32N 50°58' E 001°51'4 4.1
2015-Aug-27 14:34N 50°58' E 001°44'1010.1
2015-Aug-27 13:34N 51°02' E 001°30'5 2.4
2015-Aug-27 11:33N 51°06' E 001°26'1615.9
2015-Aug-27 10:33N 50°58' E 001°48'2 1.9
2015-Aug-27 09:29N 50°58' E 001°51'9 9.7
2015-Aug-27 08:34N 50°60' E 001°37'13 6.1
2015-Aug-27 06:25N 51°07' E 001°20'0 0.0
2015-Aug-27 05:10N 51°07' E 001°20'4 6.6
2015-Aug-27 04:33N 51°08' E 001°26'1515.3
2015-Aug-27 03:33N 50°58' E 001°45'4 3.9
2015-Aug-27 02:34N 50°58' E 001°51'7 6.9
2015-Aug-27 01:33N 50°59' E 001°40'1514.3
2015-Aug-27 00:31N 51°07' E 001°20'0 0.0
2015-Aug-26 23:29N 51°07' E 001°20'1313.8
2015-Aug-26 22:33N 51°02' E 001°38'9 8.5
2015-Aug-26 21:31N 50°58' E 001°51'1 0.6
2015-Aug-26 20:33N 50°58' E 001°50'1616.5
2015-Aug-26 19:34N 51°05' E 001°26'5 4.2
2015-Aug-26 18:28N 51°07' E 001°20'6 7.1
2015-Aug-26 17:34N 51°05' E 001°30'1514.9
2015-Aug-26 16:33N 50°58' E 001°51'0 0.1
2015-Aug-26 15:33N 50°58' E 001°51'7 6.7
2015-Aug-26 14:33N 50°59' E 001°40'1515.0
2015-Aug-26 13:32N 51°07' E 001°20'0 0.0
2015-Aug-26 12:32N 51°07' E 001°20'5 5.5
2015-Aug-26 11:33N 51°06' E 001°29'1616.0
2015-Aug-26 10:33N 50°58' E 001°50'0 0.2
2015-Aug-26 09:33N 50°58' E 001°51'9 8.9
2015-Aug-26 08:33N 50°59' E 001°37'13 6.0
2015-Aug-26 06:21N 51°07' E 001°20'1 0.5
2015-Aug-26 04:33N 51°07' E 001°22'1716.7
2015-Aug-26 03:33N 50°58' E 001°44'4 4.3
2015-Aug-26 02:33N 50°58' E 001°51'9 8.8
2015-Aug-26 01:33N 50°59' E 001°37'13 5.7
2015-Aug-25 23:12N 51°07' E 001°20'711.5
2015-Aug-25 22:33N 51°06' E 001°31'1414.4
2015-Aug-25 21:34N 50°58' E 001°51'0 0.2
2015-Aug-25 20:34N 50°58' E 001°51'1414.3
2015-Aug-25 19:34N 51°03' E 001°30'7 6.5
2015-Aug-25 18:27N 51°07' E 001°20'0 0.0
2015-Aug-25 17:25N 51°07' E 001°20'3 3.8
2015-Aug-25 16:34N 51°07' E 001°25'1716.6
2015-Aug-25 15:33N 50°58' E 001°47'2 2.2
2015-Aug-25 14:33N 50°58' E 001°51'1010.1
2015-Aug-25 13:34N 50°59' E 001°35'1210.3
2015-Aug-25 12:22N 51°07' E 001°20'0 0.3
2015-Aug-25 11:33N 51°07' E 001°20'1716.5
2015-Aug-25 10:34N 50°59' E 001°43'5 4.9
2015-Aug-25 09:33N 50°58' E 001°51'5 5.0
2015-Aug-25 08:33N 50°58' E 001°43'1716.9
2015-Aug-25 07:33N 51°07' E 001°20'0 0.0
2015-Aug-25 04:33N 51°07' E 001°20'1212.3
2015-Aug-25 03:33N 51°02' E 001°37'9 9.2
2015-Aug-25 02:34N 50°58' E 001°51'4 4.3
2015-Aug-25 01:34N 50°58' E 001°44'1515.4
2015-Aug-25 00:33N 51°06' E 001°23'2 2.4
2015-Aug-24 23:33N 51°07' E 001°20'1313.5
2015-Aug-24 22:33N 51°00' E 001°39'8 8.1
2015-Aug-24 21:33N 50°58' E 001°51'5 4.7
2015-Aug-24 20:33N 50°58' E 001°43'1515.1
2015-Aug-24 19:33N 51°06' E 001°24'2 2.5
2015-Aug-24 18:33N 51°07' E 001°20'0 0.0
2015-Aug-24 17:32N 51°07' E 001°20'0 0.0
2015-Aug-24 16:33N 51°07' E 001°20'1313.0
2015-Aug-24 15:34N 51°01' E 001°38'9 8.6
2015-Aug-24 14:33N 50°58' E 001°51'7 7.0
2015-Aug-24 13:33N 50°59' E 001°40'1515.1
2015-Aug-24 12:33N 51°07' E 001°20'0 0.3
2015-Aug-24 11:33N 51°07' E 001°20'1717.1
2015-Aug-24 10:33N 50°59' E 001°44'4 4.4
2015-Aug-24 09:33N 50°58' E 001°51'8 8.3
2015-Aug-24 08:34N 50°60' E 001°38'1412.2
2015-Aug-24 07:27N 51°07' E 001°20'0 0.0
2015-Aug-24 06:26N 51°07' E 001°20'0 0.0
2015-Aug-24 04:26N 51°07' E 001°20'1213.2
2015-Aug-24 03:34N 51°02' E 001°36'10 9.7
2015-Aug-24 02:32N 50°58' E 001°51'1 0.5
2015-Aug-24 01:33N 50°58' E 001°52'0 0.0
2015-Aug-24 00:33N 50°58' E 001°52'0 0.0
2015-Aug-23 23:33N 50°58' E 001°52'0 0.0
2015-Aug-23 22:33N 50°58' E 001°52'0 0.0
2015-Aug-23 21:33N 50°58' E 001°52'3 2.7
2015-Aug-23 20:33N 50°58' E 001°47'1515.3
2015-Aug-23 19:33N 51°05' E 001°26'4 3.4
2015-Aug-23 18:20N 51°07' E 001°20'0 0.0
2015-Aug-23 17:29N 51°07' E 001°20'0 0.0
2015-Aug-23 16:14N 51°07' E 001°20'710.8
2015-Aug-23 15:33N 51°04' E 001°31'1413.9
2015-Aug-23 14:33N 50°58' E 001°50'1 0.8
2015-Aug-23 13:33N 50°58' E 001°52'0 0.0
2015-Aug-23 12:34N 50°58' E 001°52'0 0.0
2015-Aug-23 11:33N 50°58' E 001°52'0 0.0
2015-Aug-23 10:33N 50°58' E 001°52'0 0.0
2015-Aug-23 09:33N 50°58' E 001°52'0 0.0
2015-Aug-23 08:33N 50°58' E 001°52'0 0.0
2015-Aug-23 07:33N 50°58' E 001°52'0 0.0
2015-Aug-23 06:33N 50°58' E 001°52'0 0.0
2015-Aug-23 05:33N 50°58' E 001°52'0 0.0
2015-Aug-23 04:33N 50°58' E 001°52'0 0.0
2015-Aug-23 03:33N 50°58' E 001°52'0 0.0
2015-Aug-23 01:33N 50°58' E 001°52'0 0.0
2015-Aug-23 00:33N 50°58' E 001°52'0 0.0
2015-Aug-22 23:33N 50°58' E 001°52'0 0.0
2015-Aug-22 22:33N 50°58' E 001°52'1 0.5
2015-Aug-22 21:33N 50°58' E 001°51'6 5.8
2015-Aug-22 20:33N 50°58' E 001°42'1616.4
2015-Aug-22 19:33N 51°07' E 001°20'1 0.8
2015-Aug-22 18:33N 51°07' E 001°20'0 0.0
2015-Aug-22 17:21N 51°07' E 001°20'0 0.1
2015-Aug-22 16:33N 51°07' E 001°20'1616.1
2015-Aug-22 15:33N 50°59' E 001°42'5 5.5
2015-Aug-22 14:33N 50°58' E 001°51'1111.5
2015-Aug-22 13:33N 51°02' E 001°34'1010.3
2015-Aug-22 12:33N 51°07' E 001°20'3 3.0
2015-Aug-22 11:33N 51°06' E 001°25'1717.3
2015-Aug-22 10:33N 50°58' E 001°49'1 1.3
2015-Aug-22 09:33N 50°58' E 001°51'7 7.0
2015-Aug-22 08:33N 50°59' E 001°40'1514.9
2015-Aug-22 07:33N 51°07' E 001°20'0 0.0
2015-Aug-22 06:33N 51°07' E 001°20'0 0.0
2015-Aug-22 05:31N 51°07' E 001°20'0 0.3
2015-Aug-22 04:33N 51°07' E 001°20'1313.0
2015-Aug-22 03:33N 51°01' E 001°39'8 8.3
2015-Aug-22 02:33N 50°58' E 001°51'4 4.4
2015-Aug-22 01:34N 50°58' E 001°44'1615.6
2015-Aug-22 00:34N 51°06' E 001°23'2 1.9
2015-Aug-21 23:33N 51°07' E 001°20'1413.9
2015-Aug-21 22:33N 50°60' E 001°39'8 7.6
2015-Aug-21 21:33N 50°58' E 001°51'0 0.2
2015-Aug-21 20:33N 50°58' E 001°51'1111.2
2015-Aug-21 19:33N 51°01' E 001°33'1110.0
2015-Aug-21 18:29N 51°07' E 001°20'0 0.0
2015-Aug-21 17:33N 51°07' E 001°20'  
Track history (hours):
 
Tides and Currents Weather Stations Pressure Air Temp Water Temp Dewpoint Dewpoint Depression Visibility Wind Speed Wind Dir Waves Ship Positions

European Seaway

Operator: P & O Ferries

Last reported at 2015-Aug-31 17:33 UTC. Time now 2015-Aug-31 17:52 UTC.
Position N 51°07' E 001°20'.

Length 175 m; draft 6 m.

Type: Passenger vessel. MMSI: 232001040.

Date/timePositionNaut miles runAvg speedWind from/ knotsBaromVisibWave heightAir tempDewpointWater temp
2015-Aug-31 17:33N 51°07' E 001°20'0 0.0
2015-Aug-31 16:32N 51°07' E 001°20'9 9.0
2015-Aug-31 15:34N 51°04' E 001°33'1312.8
2015-Aug-31 14:34N 50°58' E 001°51'2 2.0
2015-Aug-31 13:33N 50°58' E 001°48'2 2.1
2015-Aug-31 12:33N 50°58' E 001°44'1414.0
2015-Aug-31 11:33N 51°05' E 001°25'4 4.0
2015-Aug-31 10:33N 51°07' E 001°20'1313.0
2015-Aug-31 09:33N 51°02' E 001°39'9 8.6
2015-Aug-31 08:34N 50°58' E 001°51'4 3.9
2015-Aug-31 07:33N 50°58' E 001°45'1413.8
2015-Aug-31 06:33N 51°05' E 001°25'4 4.0
2015-Aug-31 05:33N 51°07' E 001°20'1515.4
2015-Aug-31 04:33N 50°60' E 001°41'6 6.1
2015-Aug-31 03:33N 50°58' E 001°51'2 2.4
2015-Aug-31 02:32N 50°58' E 001°47'1111.1
2015-Aug-31 01:33N 51°02' E 001°31'9 1.4
2015-Aug-30 19:23N 51°07' E 001°20'1 0.2
2015-Aug-30 16:32N 51°07' E 001°20'1313.3
2015-Aug-30 15:33N 51°01' E 001°38'9 8.5
2015-Aug-30 14:33N 50°58' E 001°51'8 7.6
2015-Aug-30 13:34N 50°59' E 001°39'14 7.0
2015-Aug-30 11:32N 51°07' E 001°20'1616.6
2015-Aug-30 10:33N 50°59' E 001°42'6 5.4
2015-Aug-30 09:32N 50°58' E 001°51'1 0.5
2015-Aug-30 08:31N 50°58' E 001°52'0 0.0
2015-Aug-30 07:25N 50°58' E 001°52'0 0.0
2015-Aug-30 06:31N 50°58' E 001°52'0 0.0
2015-Aug-30 05:34N 50°58' E 001°52'0 0.0
2015-Aug-30 04:33N 50°58' E 001°52'0 0.0
2015-Aug-30 03:33N 50°58' E 001°52'0 0.0
2015-Aug-30 02:34N 50°58' E 001°52'0 0.0
2015-Aug-30 01:33N 50°58' E 001°52'0 0.0
2015-Aug-30 00:33N 50°58' E 001°52'0 0.0
2015-Aug-29 23:33N 50°58' E 001°52'0 0.0
2015-Aug-29 22:34N 50°58' E 001°52'0 0.0
2015-Aug-29 21:33N 50°58' E 001°52'6 6.0
2015-Aug-29 20:33N 50°58' E 001°42'1312.8
2015-Aug-29 19:34N 51°05' E 001°25'4 3.8
2015-Aug-29 18:33N 51°07' E 001°20'0 0.0
2015-Aug-29 17:33N 51°07' E 001°20'0 0.1
2015-Aug-29 16:33N 51°07' E 001°20'1615.7
2015-Aug-29 15:33N 50°60' E 001°42'6 6.1
2015-Aug-29 14:33N 50°58' E 001°51'9 9.5
2015-Aug-29 13:34N 51°00' E 001°36'12 9.4
2015-Aug-29 12:14N 51°07' E 001°20'2 2.5
2015-Aug-29 11:33N 51°07' E 001°23'1616.2
2015-Aug-29 10:34N 50°58' E 001°44'4 4.1
2015-Aug-29 09:34N 50°58' E 001°51'9 8.7
2015-Aug-29 08:33N 50°59' E 001°37'1312.8
2015-Aug-29 07:30N 51°07' E 001°20'0 0.0
2015-Aug-29 06:25N 51°07' E 001°20'7 8.0
2015-Aug-29 05:34N 51°05' E 001°30'1514.9
2015-Aug-29 04:33N 50°58' E 001°52'0 0.1
2015-Aug-29 03:33N 50°58' E 001°52'0 0.0
2015-Aug-29 02:33N 50°58' E 001°52'0 0.0
2015-Aug-29 01:33N 50°58' E 001°52'0 0.0
2015-Aug-29 00:33N 50°58' E 001°52'0 0.0
2015-Aug-28 23:33N 50°58' E 001°52'0 0.0
2015-Aug-28 22:33N 50°58' E 001°52'0 0.3
2015-Aug-28 21:33N 50°58' E 001°51'4 3.8
2015-Aug-28 20:34N 50°58' E 001°45'1817.5
2015-Aug-28 19:33N 51°07' E 001°21'1 0.6
2015-Aug-28 18:17N 51°07' E 001°20'0 0.0
2015-Aug-28 17:25N 51°07' E 001°20'7 8.0
2015-Aug-28 16:33N 51°05' E 001°30'1514.6
2015-Aug-28 15:33N 50°58' E 001°51'0 0.0
2015-Aug-28 14:33N 50°58' E 001°51'1413.8
2015-Aug-28 13:33N 51°03' E 001°30'8 7.8
2015-Aug-28 12:32N 51°07' E 001°20'5 5.4
2015-Aug-28 11:34N 51°06' E 001°28'1615.5
2015-Aug-28 10:34N 50°58' E 001°50'1 0.7
2015-Aug-28 09:33N 50°58' E 001°51'8 7.8
2015-Aug-28 08:34N 50°59' E 001°39'14 4.7
2015-Aug-28 05:33N 51°07' E 001°20'1111.5
2015-Aug-28 04:33N 51°02' E 001°36'10 9.9
2015-Aug-28 03:33N 50°58' E 001°51'10 9.8
2015-Aug-28 02:33N 50°60' E 001°36'12 8.9
2015-Aug-28 01:10N 51°07' E 001°20'1 1.2
2015-Aug-28 00:33N 51°07' E 001°21'1212.3
2015-Aug-27 23:33N 51°01' E 001°38'8 8.1
2015-Aug-27 22:31N 50°58' E 001°51'2 1.6
2015-Aug-27 21:33N 50°58' E 001°48'7 6.7
2015-Aug-27 20:33N 50°59' E 001°38'1212.2
2015-Aug-27 19:33N 51°06' E 001°22'2 0.7
2015-Aug-27 17:29N 51°07' E 001°20'1213.2
2015-Aug-27 16:34N 51°02' E 001°37'9 9.0
2015-Aug-27 15:32N 50°58' E 001°51'4 4.1
2015-Aug-27 14:34N 50°58' E 001°44'1010.1
2015-Aug-27 13:34N 51°02' E 001°30'5 2.4
2015-Aug-27 11:33N 51°06' E 001°26'1615.9
2015-Aug-27 10:33N 50°58' E 001°48'2 1.9
2015-Aug-27 09:29N 50°58' E 001°51'9 9.7
2015-Aug-27 08:34N 50°60' E 001°37'13 6.1
2015-Aug-27 06:25N 51°07' E 001°20'0 0.0
2015-Aug-27 05:10N 51°07' E 001°20'4 6.6
2015-Aug-27 04:33N 51°08' E 001°26'1515.3
2015-Aug-27 03:33N 50°58' E 001°45'4 3.9
2015-Aug-27 02:34N 50°58' E 001°51'7 6.9
2015-Aug-27 01:33N 50°59' E 001°40'1514.3
2015-Aug-27 00:31N 51°07' E 001°20'0 0.0
2015-Aug-26 23:29N 51°07' E 001°20'1313.8
2015-Aug-26 22:33N 51°02' E 001°38'9 8.5
2015-Aug-26 21:31N 50°58' E 001°51'1 0.6
2015-Aug-26 20:33N 50°58' E 001°50'1616.5
2015-Aug-26 19:34N 51°05' E 001°26'5 4.2
2015-Aug-26 18:28N 51°07' E 001°20'6 7.1
2015-Aug-26 17:34N 51°05' E 001°30'1514.9
2015-Aug-26 16:33N 50°58' E 001°51'0 0.1
2015-Aug-26 15:33N 50°58' E 001°51'7 6.7
2015-Aug-26 14:33N 50°59' E 001°40'1515.0
2015-Aug-26 13:32N 51°07' E 001°20'0 0.0
2015-Aug-26 12:32N 51°07' E 001°20'5 5.5
2015-Aug-26 11:33N 51°06' E 001°29'1616.0
2015-Aug-26 10:33N 50°58' E 001°50'0 0.2
2015-Aug-26 09:33N 50°58' E 001°51'9 8.9
2015-Aug-26 08:33N 50°59' E 001°37'13 6.0
2015-Aug-26 06:21N 51°07' E 001°20'1 0.5
2015-Aug-26 04:33N 51°07' E 001°22'1716.7
2015-Aug-26 03:33N 50°58' E 001°44'4 4.3
2015-Aug-26 02:33N 50°58' E 001°51'9 8.8
2015-Aug-26 01:33N 50°59' E 001°37'13 5.7
2015-Aug-25 23:12N 51°07' E 001°20'711.5
2015-Aug-25 22:33N 51°06' E 001°31'1414.4
2015-Aug-25 21:34N 50°58' E 001°51'0 0.2
2015-Aug-25 20:34N 50°58' E 001°51'1414.3
2015-Aug-25 19:34N 51°03' E 001°30'7 6.5
2015-Aug-25 18:27N 51°07' E 001°20'0 0.0
2015-Aug-25 17:25N 51°07' E 001°20'3 3.8
2015-Aug-25 16:34N 51°07' E 001°25'1716.6
2015-Aug-25 15:33N 50°58' E 001°47'2 2.2
2015-Aug-25 14:33N 50°58' E 001°51'1010.1
2015-Aug-25 13:34N 50°59' E 001°35'1210.3
2015-Aug-25 12:22N 51°07' E 001°20'0 0.3
2015-Aug-25 11:33N 51°07' E 001°20'1716.5
2015-Aug-25 10:34N 50°59' E 001°43'5 4.9
2015-Aug-25 09:33N 50°58' E 001°51'5 5.0
2015-Aug-25 08:33N 50°58' E 001°43'1716.9
2015-Aug-25 07:33N 51°07' E 001°20'0 0.0
2015-Aug-25 04:33N 51°07' E 001°20'1212.3
2015-Aug-25 03:33N 51°02' E 001°37'9 9.2
2015-Aug-25 02:34N 50°58' E 001°51'4 4.3
2015-Aug-25 01:34N 50°58' E 001°44'1515.4
2015-Aug-25 00:33N 51°06' E 001°23'2 2.4
2015-Aug-24 23:33N 51°07' E 001°20'1313.5
2015-Aug-24 22:33N 51°00' E 001°39'8 8.1
2015-Aug-24 21:33N 50°58' E 001°51'5 4.7
2015-Aug-24 20:33N 50°58' E 001°43'1515.1
2015-Aug-24 19:33N 51°06' E 001°24'2 2.5
2015-Aug-24 18:33N 51°07' E 001°20'0 0.0
2015-Aug-24 17:32N 51°07' E 001°20'0 0.0
2015-Aug-24 16:33N 51°07' E 001°20'1313.0
2015-Aug-24 15:34N 51°01' E 001°38'9 8.6
2015-Aug-24 14:33N 50°58' E 001°51'7 7.0
2015-Aug-24 13:33N 50°59' E 001°40'1515.1
2015-Aug-24 12:33N 51°07' E 001°20'0 0.3
2015-Aug-24 11:33N 51°07' E 001°20'1717.1
2015-Aug-24 10:33N 50°59' E 001°44'4 4.4
2015-Aug-24 09:33N 50°58' E 001°51'8 8.3
2015-Aug-24 08:34N 50°60' E 001°38'1412.2
2015-Aug-24 07:27N 51°07' E 001°20'0 0.0
2015-Aug-24 06:26N 51°07' E 001°20'0 0.0
2015-Aug-24 04:26N 51°07' E 001°20'1213.2
2015-Aug-24 03:34N 51°02' E 001°36'10 9.7
2015-Aug-24 02:32N 50°58' E 001°51'1 0.5
2015-Aug-24 01:33N 50°58' E 001°52'0 0.0
2015-Aug-24 00:33N 50°58' E 001°52'0 0.0
2015-Aug-23 23:33N 50°58' E 001°52'0 0.0
2015-Aug-23 22:33N 50°58' E 001°52'0 0.0
2015-Aug-23 21:33N 50°58' E 001°52'3 2.7
2015-Aug-23 20:33N 50°58' E 001°47'1515.3
2015-Aug-23 19:33N 51°05' E 001°26'4 3.4
2015-Aug-23 18:20N 51°07' E 001°20'0 0.0
2015-Aug-23 17:29N 51°07' E 001°20'0 0.0
2015-Aug-23 16:14N 51°07' E 001°20'710.8
2015-Aug-23 15:33N 51°04' E 001°31'1413.9
2015-Aug-23 14:33N 50°58' E 001°50'1 0.8
2015-Aug-23 13:33N 50°58' E 001°52'0 0.0
2015-Aug-23 12:34N 50°58' E 001°52'0 0.0
2015-Aug-23 11:33N 50°58' E 001°52'0 0.0
2015-Aug-23 10:33N 50°58' E 001°52'0 0.0
2015-Aug-23 09:33N 50°58' E 001°52'0 0.0
2015-Aug-23 08:33N 50°58' E 001°52'0 0.0
2015-Aug-23 07:33N 50°58' E 001°52'0 0.0
2015-Aug-23 06:33N 50°58' E 001°52'0 0.0
2015-Aug-23 05:33N 50°58' E 001°52'0 0.0
2015-Aug-23 04:33N 50°58' E 001°52'0 0.0
2015-Aug-23 03:33N 50°58' E 001°52'0 0.0
2015-Aug-23 01:33N 50°58' E 001°52'0 0.0
2015-Aug-23 00:33N 50°58' E 001°52'0 0.0
2015-Aug-22 23:33N 50°58' E 001°52'0 0.0
2015-Aug-22 22:33N 50°58' E 001°52'1 0.5
2015-Aug-22 21:33N 50°58' E 001°51'6 5.8
2015-Aug-22 20:33N 50°58' E 001°42'1616.4
2015-Aug-22 19:33N 51°07' E 001°20'1 0.8
2015-Aug-22 18:33N 51°07' E 001°20'0 0.0
2015-Aug-22 17:21N 51°07' E 001°20'0 0.1
2015-Aug-22 16:33N 51°07' E 001°20'1616.1
2015-Aug-22 15:33N 50°59' E 001°42'5 5.5
2015-Aug-22 14:33N 50°58' E 001°51'1111.5
2015-Aug-22 13:33N 51°02' E 001°34'1010.3
2015-Aug-22 12:33N 51°07' E 001°20'3 3.0
2015-Aug-22 11:33N 51°06' E 001°25'1717.3
2015-Aug-22 10:33N 50°58' E 001°49'1 1.3
2015-Aug-22 09:33N 50°58' E 001°51'7 7.0
2015-Aug-22 08:33N 50°59' E 001°40'1514.9
2015-Aug-22 07:33N 51°07' E 001°20'0 0.0
2015-Aug-22 06:33N 51°07' E 001°20'0 0.0
2015-Aug-22 05:31N 51°07' E 001°20'0 0.3
2015-Aug-22 04:33N 51°07' E 001°20'1313.0
2015-Aug-22 03:33N 51°01' E 001°39'8 8.3
2015-Aug-22 02:33N 50°58' E 001°51'4 4.4
2015-Aug-22 01:34N 50°58' E 001°44'1615.6
2015-Aug-22 00:34N 51°06' E 001°23'2 1.9
2015-Aug-21 23:33N 51°07' E 001°20'1413.9
2015-Aug-21 22:33N 50°60' E 001°39'8 7.6
2015-Aug-21 21:33N 50°58' E 001°51'0 0.2
2015-Aug-21 20:33N 50°58' E 001°51'1111.2
2015-Aug-21 19:33N 51°01' E 001°33'1110.0
2015-Aug-21 18:29N 51°07' E 001°20'0 0.0
2015-Aug-21 17:33N 51°07' E 001°20'  

Dump ship's entire track history